Time;durP1;ratioP1;P1;durP2;ratioP2;P2;SDS_P1;SDS_P2;PMS_P1;PMS_P2;Temp;Humidity;BMP_temperature;BMP_pressure;BME280_temperature;BME280_humidity;BME280_pressure;Samples;Min_cycle;Max_cycle;Signal;HPM_P1;HPM_P2
2022/12/11 00:00:21;;;;;;;19.10;9.47;;;;;;;;;;5027205;28;20466;-59
2022/12/11 00:02:48;;;;;;;19.00;8.60;;;;;;;;;;5052631;28;20431;-59
2022/12/11 00:05:14;;;;;;;17.93;8.63;;;;;;;;;;5048098;28;20181;-58
2022/12/11 00:07:40;;;;;;;21.27;10.50;;;;;;;;;;5046932;28;20937;-57
2022/12/11 00:10:06;;;;;;;20.43;10.30;;;;;;;;;;5045177;28;20814;-59
2022/12/11 00:12:32;;;;;;;25.57;8.97;;;;;;;;;;5050781;28;20423;-58
2022/12/11 00:14:58;;;;;;;17.57;9.60;;;;;;;;;;5043161;28;20462;-58
2022/12/11 00:17:24;;;;;;;19.40;9.03;;;;;;;;;;5045488;28;20436;-59
2022/12/11 00:19:50;;;;;;;17.17;8.50;;;;;;;;;;5039429;28;20501;-58
2022/12/11 00:22:16;;;;;;;21.53;9.67;;;;;;;;;;5047757;28;20919;-58
2022/12/11 00:24:42;;;;;;;19.40;9.83;;;;;;;;;;5064222;28;20723;-59
2022/12/11 00:27:08;;;;;;;21.30;10.53;;;;;;;;;;5036787;28;20431;-58
2022/12/11 00:29:34;;;;;;;23.53;10.63;;;;;;;;;;5026833;28;20837;-58
2022/12/11 00:32:00;;;;;;;22.23;9.80;;;;;;;;;;5027633;28;20447;-59
2022/12/11 00:34:27;;;;;;;18.50;9.93;;;;;;;;;;5058867;28;20427;-58
2022/12/11 00:36:53;;;;;;;16.70;9.43;;;;;;;;;;5046892;28;20169;-59
2022/12/11 00:39:19;;;;;;;20.20;9.83;;;;;;;;;;5046801;28;20408;-59
2022/12/11 00:41:45;;;;;;;21.43;9.77;;;;;;;;;;5046356;28;20430;-58
2022/12/11 00:44:11;;;;;;;18.67;9.57;;;;;;;;;;5040874;28;20458;-59
2022/12/11 00:46:37;;;;;;;23.27;10.83;;;;;;;;;;5044210;28;20513;-61
2022/12/11 00:49:03;;;;;;;20.40;9.97;;;;;;;;;;5044146;28;20917;-59
2022/12/11 00:51:29;;;;;;;20.33;9.83;;;;;;;;;;5045719;28;20239;-57
2022/12/11 00:53:55;;;;;;;19.47;9.63;;;;;;;;;;5059278;28;20431;-58
2022/12/11 00:56:22;;;;;;;19.43;10.37;;;;;;;;;;5045655;28;20677;-59
2022/12/11 00:58:49;;;;;;;17.97;9.53;;;;;;;;;;5045062;28;20185;-58
2022/12/11 01:01:16;;;;;;;27.40;10.70;;;;;;;;;;5044426;28;20865;-59
2022/12/11 01:03:43;;;;;;;23.13;10.33;;;;;;;;;;5045979;28;20401;-58
2022/12/11 01:06:12;;;;;;;21.90;10.40;;;;;;;;;;5044645;28;20474;-57
2022/12/11 01:08:38;;;;;;;21.30;9.97;;;;;;;;;;5044128;28;20531;-59
2022/12/11 01:11:06;;;;;;;18.10;10.17;;;;;;;;;;5043365;28;20803;-57
2022/12/11 01:13:32;;;;;;;16.83;8.93;;;;;;;;;;5043192;28;20427;-60
2022/12/11 01:15:58;;;;;;;19.20;9.60;;;;;;;;;;5042530;28;20559;-57
2022/12/11 01:18:25;;;;;;;19.20;10.17;;;;;;;;;;5043943;28;20488;-58
2022/12/11 01:20:51;;;;;;;20.93;10.07;;;;;;;;;;5051862;28;20497;-60
2022/12/11 01:23:17;;;;;;;22.33;10.10;;;;;;;;;;5048947;28;20422;-59
2022/12/11 01:25:43;;;;;;;19.07;9.93;;;;;;;;;;5034762;28;20200;-60
2022/12/11 01:28:09;;;;;;;17.87;9.67;;;;;;;;;;5041663;28;20313;-58
2022/12/11 01:30:35;;;;;;;21.67;10.63;;;;;;;;;;5045365;28;20828;-59
2022/12/11 01:33:01;;;;;;;17.87;9.37;;;;;;;;;;5042685;28;20205;-58
2022/12/11 01:35:28;;;;;;;20.23;9.47;;;;;;;;;;5036299;28;20501;-58
2022/12/11 01:37:54;;;;;;;15.97;8.67;;;;;;;;;;5024988;28;20435;-59
2022/12/11 01:40:20;;;;;;;15.20;8.70;;;;;;;;;;5037568;28;20564;-58
2022/12/11 01:42:46;;;;;;;18.37;8.77;;;;;;;;;;5048635;28;20427;-59
2022/12/11 01:45:22;;;;;;;18.40;8.70;;;;;;;;;;5035794;28;20442;-59
2022/12/11 01:48:08;;;;;;;22.23;8.97;;;;;;;;;;5042262;28;20443;-59
2022/12/11 01:50:36;;;;;;;16.40;8.63;;;;;;;;;;5025891;28;20856;-59
2022/12/11 01:53:04;;;;;;;22.10;9.07;;;;;;;;;;5036118;28;20447;-59
2022/12/11 01:55:30;;;;;;;16.70;8.87;;;;;;;;;;5031232;28;20435;-57
2022/12/11 01:57:57;;;;;;;15.47;9.17;;;;;;;;;;5024291;28;20864;-59
2022/12/11 02:00:23;;;;;;;18.70;9.30;;;;;;;;;;5024773;28;20986;-59
2022/12/11 02:02:49;;;;;;;19.47;8.93;;;;;;;;;;5023247;28;20512;-58
2022/12/11 02:05:15;;;;;;;20.90;8.53;;;;;;;;;;5033861;28;20437;-58
2022/12/11 02:07:47;;;;;;;17.50;8.43;;;;;;;;;;5022380;28;20181;-59
2022/12/11 02:10:13;;;;;;;16.53;8.60;;;;;;;;;;5025658;28;20532;-58
2022/12/11 02:12:48;;;;;;;14.20;8.40;;;;;;;;;;5022657;28;20425;-59
2022/12/11 02:15:14;;;;;;;15.57;8.33;;;;;;;;;;5038842;28;20825;-59
2022/12/11 02:17:43;;;;;;;13.80;8.47;;;;;;;;;;5022273;28;20491;-58
2022/12/11 02:20:16;;;;;;;20.37;8.60;;;;;;;;;;5034403;28;20769;-58
2022/12/11 02:22:58;;;;;;;15.83;8.67;;;;;;;;;;5022473;28;20773;-59
2022/12/11 02:25:33;;;;;;;15.30;8.20;;;;;;;;;;5007129;28;20753;-58
2022/12/11 02:28:18;;;;;;;18.33;9.33;;;;;;;;;;5021258;28;20506;-57
2022/12/11 02:30:48;;;;;;;18.50;9.03;;;;;;;;;;5026944;28;20476;-59
2022/12/11 02:33:14;;;;;;;18.40;8.10;;;;;;;;;;5034420;28;20428;-58
2022/12/11 02:35:42;;;;;;;19.80;8.63;;;;;;;;;;5023169;28;20694;-58
2022/12/11 02:38:10;;;;;;;17.17;9.20;;;;;;;;;;5024069;28;20607;-59
2022/12/11 02:40:37;;;;;;;15.40;8.00;;;;;;;;;;5028958;28;20427;-58
2022/12/11 02:43:06;;;;;;;14.90;8.57;;;;;;;;;;5032785;28;20867;-58
2022/12/11 02:45:33;;;;;;;14.00;7.37;;;;;;;;;;5028638;28;20405;-59
2022/12/11 02:48:01;;;;;;;13.03;7.90;;;;;;;;;;5027171;28;20494;-58
2022/12/11 02:50:28;;;;;;;15.07;7.67;;;;;;;;;;5014251;28;20186;-58
2022/12/11 02:52:55;;;;;;;18.83;9.40;;;;;;;;;;5007708;28;20456;-58
2022/12/11 02:55:22;;;;;;;14.80;8.23;;;;;;;;;;5031343;28;20581;-58
2022/12/11 02:57:51;;;;;;;20.87;9.43;;;;;;;;;;5025889;28;20440;-58
2022/12/11 03:00:18;;;;;;;23.07;9.40;;;;;;;;;;5027989;28;20467;-58
2022/12/11 03:02:44;;;;;;;16.63;8.30;;;;;;;;;;5027555;28;20478;-58
2022/12/11 03:05:11;;;;;;;19.47;8.37;;;;;;;;;;5028971;28;20921;-58
2022/12/11 03:07:38;;;;;;;18.40;8.43;;;;;;;;;;5026498;28;20468;-58
2022/12/11 03:10:05;;;;;;;16.40;8.17;;;;;;;;;;5028922;28;20471;-58
2022/12/11 03:12:33;;;;;;;13.23;8.27;;;;;;;;;;5032711;28;20515;-58
2022/12/11 03:15:01;;;;;;;16.03;8.17;;;;;;;;;;5046157;28;20619;-58
2022/12/11 03:17:32;;;;;;;18.80;8.43;;;;;;;;;;5012644;28;20433;-58
2022/12/11 03:20:04;;;;;;;16.73;7.60;;;;;;;;;;5021727;28;20428;-59
2022/12/11 03:22:37;;;;;;;19.17;8.33;;;;;;;;;;5025564;28;20643;-59
2022/12/11 03:25:06;;;;;;;17.33;8.03;;;;;;;;;;5026964;28;20506;-58
2022/12/11 03:27:37;;;;;;;13.63;7.87;;;;;;;;;;5025465;28;20432;-58
2022/12/11 03:30:10;;;;;;;16.07;8.00;;;;;;;;;;5025665;28;21294;-58
2022/12/11 03:32:38;;;;;;;16.50;8.40;;;;;;;;;;5032169;28;20627;-60
2022/12/11 03:35:11;;;;;;;19.83;9.57;;;;;;;;;;5037534;28;20436;-59
2022/12/11 03:37:38;;;;;;;18.17;8.43;;;;;;;;;;5008490;28;20790;-58
2022/12/11 03:40:09;;;;;;;16.20;9.00;;;;;;;;;;5026916;28;20974;-58
2022/12/11 03:42:37;;;;;;;16.80;9.43;;;;;;;;;;5026721;28;20467;-58
2022/12/11 03:45:04;;;;;;;15.87;9.00;;;;;;;;;;5045237;28;20396;-58
2022/12/11 03:47:30;;;;;;;14.80;8.27;;;;;;;;;;5027557;28;20523;-59
2022/12/11 03:49:58;;;;;;;16.53;9.10;;;;;;;;;;5028428;28;20467;-59
2022/12/11 03:52:26;;;;;;;20.63;9.50;;;;;;;;;;5040581;28;20533;-59
2022/12/11 03:54:52;;;;;;;18.13;10.07;;;;;;;;;;5059349;28;20811;-58
2022/12/11 03:57:21;;;;;;;19.13;9.60;;;;;;;;;;5046443;28;20906;-58
2022/12/11 03:59:47;;;;;;;15.80;8.87;;;;;;;;;;5045714;28;20902;-58
2022/12/11 04:02:13;;;;;;;18.90;8.80;;;;;;;;;;5040810;28;20450;-59
2022/12/11 04:04:39;;;;;;;26.10;10.33;;;;;;;;;;5059128;28;20430;-58
2022/12/11 04:07:06;;;;;;;17.53;8.53;;;;;;;;;;5045986;28;20436;-57
2022/12/11 04:09:32;;;;;;;18.33;8.60;;;;;;;;;;5046194;28;20477;-58
2022/12/11 04:11:58;;;;;;;16.53;8.60;;;;;;;;;;5043540;28;20493;-58
2022/12/11 04:17:09;;;;;;;19.20;9.77;;;;;;;;;;5065319;28;20422;-60
2022/12/11 04:24:51;;;;;;;17.67;9.13;;;;;;;;;;5066970;28;21015;-58
2022/12/11 04:27:47;;;;;;;17.40;9.13;;;;;;;;;;5052925;28;20953;-59
2022/12/11 04:30:05;;;;;;;17.07;9.80;;;;;;;;;;5044771;28;21057;-58
2022/12/11 04:32:31;;;;;;;15.67;8.20;;;;;;;;;;5043538;28;20752;-58
2022/12/11 04:34:57;;;;;;;19.50;9.17;;;;;;;;;;5056870;28;20838;-58
2022/12/11 04:37:23;;;;;;;18.07;9.53;;;;;;;;;;5032174;28;20921;-59
2022/12/11 04:39:49;;;;;;;17.90;8.60;;;;;;;;;;5045541;28;20578;-58
2022/12/11 04:42:15;;;;;;;12.73;7.97;;;;;;;;;;5043694;28;20423;-58
2022/12/11 04:44:41;;;;;;;17.80;9.67;;;;;;;;;;5028089;28;20460;-57
2022/12/11 04:47:14;;;;;;;17.60;8.47;;;;;;;;;;5042518;28;20435;-57
2022/12/11 04:49:40;;;;;;;17.73;9.13;;;;;;;;;;5042270;28;20466;-59
2022/12/11 04:52:06;;;;;;;17.63;10.10;;;;;;;;;;5043176;28;20459;-59
2022/12/11 04:54:32;;;;;;;20.03;9.43;;;;;;;;;;5029302;28;21061;-60
2022/12/11 04:56:58;;;;;;;15.90;9.13;;;;;;;;;;5029743;28;20787;-58
2022/12/11 04:59:24;;;;;;;17.07;8.37;;;;;;;;;;5043601;28;21003;-58
2022/12/11 05:01:50;;;;;;;18.13;10.00;;;;;;;;;;5026028;28;21000;-58
2022/12/11 05:04:23;;;;;;;18.13;9.80;;;;;;;;;;5058394;28;20426;-59
2022/12/11 05:06:50;;;;;;;19.17;9.13;;;;;;;;;;5044100;28;20442;-59
2022/12/11 05:09:16;;;;;;;20.03;9.73;;;;;;;;;;5043677;28;20430;-59
2022/12/11 05:11:42;;;;;;;19.17;10.47;;;;;;;;;;5043020;28;20201;-58
2022/12/11 05:14:08;;;;;;;17.97;9.40;;;;;;;;;;5044740;28;20438;-58
2022/12/11 05:16:34;;;;;;;17.27;10.13;;;;;;;;;;5044169;28;20920;-58
2022/12/11 05:19:00;;;;;;;17.03;9.73;;;;;;;;;;5027428;28;21251;-58
2022/12/11 05:21:26;;;;;;;15.73;8.67;;;;;;;;;;5042632;28;20431;-58
2022/12/11 05:23:52;;;;;;;20.77;10.17;;;;;;;;;;5044682;28;20512;-58
2022/12/11 05:26:19;;;;;;;18.13;9.10;;;;;;;;;;5066655;28;20387;-57
2022/12/11 05:28:46;;;;;;;14.93;8.70;;;;;;;;;;5029653;28;20426;-59
2022/12/11 05:31:17;;;;;;;20.97;9.17;;;;;;;;;;5032919;28;20470;-59
2022/12/11 05:33:44;;;;;;;17.13;9.73;;;;;;;;;;5037442;28;20435;-58
2022/12/11 05:36:17;;;;;;;16.23;8.37;;;;;;;;;;5043903;28;21030;-58
2022/12/11 05:38:43;;;;;;;18.33;9.07;;;;;;;;;;5046065;28;20820;-59
2022/12/11 05:41:11;;;;;;;15.97;8.63;;;;;;;;;;5043728;28;20431;-59
2022/12/11 05:44:02;;;;;;;15.27;8.83;;;;;;;;;;5033903;28;20498;-59
2022/12/11 05:46:30;;;;;;;18.03;9.63;;;;;;;;;;5041314;28;20424;-57
2022/12/11 05:49:03;;;;;;;18.93;9.20;;;;;;;;;;5044850;28;20846;-59
2022/12/11 05:51:38;;;;;;;15.70;8.63;;;;;;;;;;5047806;28;20502;-58
2022/12/11 05:54:04;;;;;;;16.20;9.13;;;;;;;;;;5043311;28;20181;-58
2022/12/11 05:56:32;;;;;;;14.90;8.40;;;;;;;;;;5058423;28;20495;-58
2022/12/11 05:58:59;;;;;;;18.40;9.97;;;;;;;;;;5056687;28;21019;-59
2022/12/11 06:01:25;;;;;;;18.27;9.40;;;;;;;;;;5019795;28;20939;-59
2022/12/11 06:03:52;;;;;;;18.33;9.60;;;;;;;;;;5041468;28;20481;-60
2022/12/11 06:06:18;;;;;;;17.93;8.90;;;;;;;;;;5044640;28;20428;-58
2022/12/11 06:08:44;;;;;;;16.70;8.47;;;;;;;;;;5044174;28;20498;-59
2022/12/11 06:11:12;;;;;;;18.57;10.20;;;;;;;;;;5029707;28;20942;-59
2022/12/11 06:13:39;;;;;;;16.50;9.83;;;;;;;;;;5046176;28;20431;-59
2022/12/11 06:16:06;;;;;;;14.10;9.13;;;;;;;;;;5047769;28;20623;-58
2022/12/11 06:18:35;;;;;;;15.87;9.07;;;;;;;;;;5052604;28;20419;-58
2022/12/11 06:21:01;;;;;;;15.33;8.80;;;;;;;;;;5042433;28;20186;-59
2022/12/11 06:23:27;;;;;;;14.40;8.20;;;;;;;;;;5024929;28;20427;-58
2022/12/11 06:25:53;;;;;;;17.63;9.17;;;;;;;;;;5049946;28;20488;-59
2022/12/11 06:28:19;;;;;;;14.77;8.07;;;;;;;;;;5049567;28;20434;-59
2022/12/11 06:30:45;;;;;;;15.87;9.07;;;;;;;;;;5045325;28;20474;-58
2022/12/11 06:33:12;;;;;;;16.23;8.33;;;;;;;;;;5062823;28;20418;-62
2022/12/11 06:35:38;;;;;;;12.50;8.30;;;;;;;;;;5046809;28;20587;-59
2022/12/11 06:38:04;;;;;;;14.00;9.33;;;;;;;;;;5029753;28;20968;-59
2022/12/11 06:40:30;;;;;;;15.27;7.97;;;;;;;;;;5035018;28;20945;-58
2022/12/11 06:42:56;;;;;;;11.93;8.43;;;;;;;;;;5040223;28;20427;-59
2022/12/11 06:45:22;;;;;;;14.97;8.03;;;;;;;;;;5044165;28;20450;-58
2022/12/11 06:47:48;;;;;;;14.93;7.50;;;;;;;;;;5047236;28;20434;-58
2022/12/11 06:50:14;;;;;;;13.30;7.47;;;;;;;;;;5058676;28;20200;-59
2022/12/11 06:52:47;;;;;;;14.03;8.27;;;;;;;;;;5043688;28;20482;-59
2022/12/11 06:55:13;;;;;;;15.47;8.20;;;;;;;;;;5048066;28;20816;-57
2022/12/11 06:57:39;;;;;;;16.57;8.37;;;;;;;;;;5048106;28;20419;-58
2022/12/11 07:00:05;;;;;;;17.30;9.97;;;;;;;;;;5027843;28;20524;-59
2022/12/11 07:02:31;;;;;;;19.50;9.60;;;;;;;;;;5047742;28;20416;-59
2022/12/11 07:04:58;;;;;;;16.40;9.67;;;;;;;;;;5047275;28;20438;-58
2022/12/11 07:07:24;;;;;;;13.77;8.43;;;;;;;;;;5048300;28;20399;-59
2022/12/11 07:09:50;;;;;;;12.67;8.47;;;;;;;;;;5059398;28;20425;-58
2022/12/11 07:12:17;;;;;;;19.20;9.43;;;;;;;;;;5050257;28;20462;-60
2022/12/11 07:14:43;;;;;;;15.53;8.53;;;;;;;;;;5045211;28;20431;-58
2022/12/11 07:17:09;;;;;;;16.03;8.23;;;;;;;;;;5048190;28;21009;-59
2022/12/11 07:19:35;;;;;;;18.37;9.03;;;;;;;;;;5047338;28;20498;-59
2022/12/11 07:22:01;;;;;;;14.67;7.73;;;;;;;;;;5031510;28;20205;-58
2022/12/11 07:24:27;;;;;;;20.33;9.87;;;;;;;;;;5029450;28;20466;-59
2022/12/11 07:26:53;;;;;;;13.00;8.27;;;;;;;;;;5055377;28;20428;-58
2022/12/11 07:29:19;;;;;;;15.17;8.37;;;;;;;;;;5043301;28;20435;-59
2022/12/11 07:31:45;;;;;;;13.50;7.70;;;;;;;;;;5034153;28;20574;-58
2022/12/11 07:34:12;;;;;;;11.87;7.53;;;;;;;;;;5038671;28;20437;-59
2022/12/11 07:36:38;;;;;;;13.10;8.30;;;;;;;;;;5045312;28;20509;-57
2022/12/11 07:39:04;;;;;;;13.90;8.50;;;;;;;;;;5041036;28;20428;-59
2022/12/11 07:41:31;;;;;;;10.47;7.63;;;;;;;;;;5041907;28;20976;-60
2022/12/11 07:43:58;;;;;;;14.50;8.40;;;;;;;;;;5040235;28;20521;-58
2022/12/11 07:46:26;;;;;;;16.23;7.67;;;;;;;;;;5044828;28;20443;-59
2022/12/11 07:48:52;;;;;;;15.97;8.57;;;;;;;;;;5039117;28;20481;-59
2022/12/11 07:51:26;;;;;;;14.37;7.93;;;;;;;;;;5055458;28;21001;-58
2022/12/11 07:53:53;;;;;;;15.67;8.70;;;;;;;;;;5030794;28;20447;-58
2022/12/11 07:56:20;;;;;;;11.77;7.23;;;;;;;;;;5023329;28;20523;-58
2022/12/11 07:58:47;;;;;;;13.27;8.43;;;;;;;;;;5024742;28;20903;-58
2022/12/11 08:01:14;;;;;;;15.60;8.80;;;;;;;;;;5008303;28;20432;-59
2022/12/11 08:03:41;;;;;;;12.80;8.17;;;;;;;;;;5029732;28;20447;-59
2022/12/11 08:06:07;;;;;;;14.73;7.63;;;;;;;;;;5025373;28;20436;-58
2022/12/11 08:08:33;;;;;;;11.23;7.63;;;;;;;;;;5029297;28;20466;-59
2022/12/11 08:11:06;;;;;;;15.47;8.83;;;;;;;;;;5030189;28;20985;-58
2022/12/11 08:13:32;;;;;;;12.50;7.03;;;;;;;;;;5030183;28;20429;-58
2022/12/11 08:15:58;;;;;;;11.57;7.00;;;;;;;;;;4994833;28;20430;-59
2022/12/11 08:18:24;;;;;;;13.57;7.77;;;;;;;;;;4992638;28;20799;-60
2022/12/11 08:20:50;;;;;;;12.53;7.03;;;;;;;;;;5018314;28;20910;-58
2022/12/11 08:23:16;;;;;;;12.67;7.70;;;;;;;;;;5022340;28;20757;-59
2022/12/11 08:25:42;;;;;;;11.30;7.10;;;;;;;;;;5023760;28;20431;-59
2022/12/11 08:28:09;;;;;;;14.20;8.90;;;;;;;;;;5023135;28;20178;-60
2022/12/11 08:30:35;;;;;;;12.37;8.20;;;;;;;;;;5020460;28;20468;-59
2022/12/11 08:33:01;;;;;;;11.90;7.60;;;;;;;;;;5016794;28;20982;-60
2022/12/11 08:35:27;;;;;;;14.13;7.90;;;;;;;;;;5018255;28;20432;-60
2022/12/11 08:37:53;;;;;;;13.03;7.63;;;;;;;;;;5020665;28;20425;-59
2022/12/11 08:40:19;;;;;;;11.37;6.80;;;;;;;;;;4997501;28;20491;-59
2022/12/11 08:42:45;;;;;;;12.70;7.73;;;;;;;;;;5041741;28;20208;-58
2022/12/11 08:45:11;;;;;;;10.27;7.03;;;;;;;;;;5026808;28;20810;-59
2022/12/11 08:47:37;;;;;;;17.77;8.27;;;;;;;;;;5026320;28;20496;-59
2022/12/11 08:50:03;;;;;;;12.67;7.10;;;;;;;;;;5027029;28;20884;-58
2022/12/11 08:52:30;;;;;;;16.77;9.10;;;;;;;;;;5019262;28;20474;-58
2022/12/11 08:54:57;;;;;;;14.40;8.67;;;;;;;;;;5044435;28;20543;-59
2022/12/11 08:57:23;;;;;;;20.10;9.17;;;;;;;;;;5031263;28;20465;-58
2022/12/11 08:59:49;;;;;;;13.37;8.07;;;;;;;;;;5043864;28;20435;-58
2022/12/11 09:02:15;;;;;;;15.93;9.23;;;;;;;;;;5048166;28;20441;-58
2022/12/11 09:04:41;;;;;;;16.50;8.47;;;;;;;;;;5066273;28;20403;-58
2022/12/11 09:07:07;;;;;;;16.43;9.57;;;;;;;;;;5028739;28;20506;-64
2022/12/11 09:09:33;;;;;;;16.60;8.97;;;;;;;;;;5042628;28;20417;-58
2022/12/11 09:12:00;;;;;;;12.20;8.17;;;;;;;;;;5034741;28;20467;-59
2022/12/11 09:14:26;;;;;;;13.57;8.53;;;;;;;;;;5059067;28;20517;-58
2022/12/11 09:16:52;;;;;;;14.50;7.83;;;;;;;;;;5066343;28;20391;-58
2022/12/11 09:19:18;;;;;;;13.07;8.60;;;;;;;;;;5045729;28;20418;-59
2022/12/11 09:21:44;;;;;;;13.63;8.50;;;;;;;;;;5045029;28;20455;-59
2022/12/11 09:24:12;;;;;;;12.60;8.13;;;;;;;;;;5039961;28;20434;-58
2022/12/11 09:26:38;;;;;;;12.20;8.80;;;;;;;;;;5045214;28;20420;-59
2022/12/11 09:29:05;;;;;;;11.73;8.27;;;;;;;;;;5025503;28;20964;-59
2022/12/11 09:31:32;;;;;;;14.37;8.33;;;;;;;;;;5045320;28;20455;-58
2022/12/11 09:34:00;;;;;;;14.13;8.43;;;;;;;;;;5057745;28;20472;-58
2022/12/11 09:36:26;;;;;;;15.40;9.40;;;;;;;;;;5028117;28;20557;-58
2022/12/11 09:38:52;;;;;;;13.83;7.63;;;;;;;;;;5046716;28;20878;-58
2022/12/11 09:41:21;;;;;;;13.27;7.83;;;;;;;;;;5046018;28;20414;-58
2022/12/11 09:44:06;;;;;;;14.20;8.40;;;;;;;;;;5049668;28;20427;-58
2022/12/11 09:46:33;;;;;;;15.00;8.33;;;;;;;;;;5048571;28;20434;-58
2022/12/11 09:49:01;;;;;;;12.50;7.13;;;;;;;;;;5023363;28;20427;-58
2022/12/11 09:51:29;;;;;;;14.33;8.10;;;;;;;;;;5044134;28;20462;-57
2022/12/11 09:53:59;;;;;;;10.97;7.77;;;;;;;;;;5059950;28;20436;-58
2022/12/11 09:56:32;;;;;;;12.70;8.27;;;;;;;;;;5047056;28;20427;-59
2022/12/11 09:59:16;;;;;;;12.53;8.17;;;;;;;;;;5048992;28;20503;-69
2022/12/11 10:01:49;;;;;;;12.33;7.50;;;;;;;;;;5025642;28;20397;-58
2022/12/11 10:04:27;;;;;;;14.57;8.90;;;;;;;;;;5040015;28;20477;-58
2022/12/11 10:06:53;;;;;;;10.07;6.63;;;;;;;;;;5047571;28;20437;-58
2022/12/11 10:09:30;;;;;;;14.67;8.10;;;;;;;;;;5050512;28;20415;-57
2022/12/11 10:12:02;;;;;;;9.73;7.40;;;;;;;;;;5028404;28;20460;-58
2022/12/11 10:14:54;;;;;;;12.57;7.80;;;;;;;;;;5031946;28;20948;-62
2022/12/11 10:17:22;;;;;;;14.27;8.57;;;;;;;;;;5031266;28;20485;-58
2022/12/11 10:19:49;;;;;;;14.77;7.83;;;;;;;;;;5035029;28;20511;-58
2022/12/11 10:22:26;;;;;;;11.57;7.03;;;;;;;;;;5038481;28;20533;-59
2022/12/11 10:24:55;;;;;;;13.67;8.27;;;;;;;;;;5040331;28;20435;-58
2022/12/11 10:27:25;;;;;;;11.33;6.73;;;;;;;;;;5047593;28;20435;-58
2022/12/11 10:30:01;;;;;;;14.40;8.20;;;;;;;;;;5013095;28;20448;-58
2022/12/11 10:32:50;;;;;;;13.67;8.40;;;;;;;;;;5038897;28;20481;-58
2022/12/11 10:35:25;;;;;;;11.50;8.00;;;;;;;;;;5026558;28;20871;-58
2022/12/11 10:37:55;;;;;;;14.03;8.10;;;;;;;;;;5041463;28;20420;-59
2022/12/11 10:40:22;;;;;;;13.90;7.23;;;;;;;;;;5039630;28;21041;-59
2022/12/11 10:42:52;;;;;;;10.87;7.53;;;;;;;;;;5036353;28;20967;-57
2022/12/11 10:45:18;;;;;;;10.73;7.53;;;;;;;;;;5044694;28;20475;-57
2022/12/11 10:47:44;;;;;;;11.07;6.83;;;;;;;;;;5051757;28;20423;-59
2022/12/11 10:50:24;;;;;;;13.03;8.00;;;;;;;;;;5042094;28;20913;-58
2022/12/11 10:52:51;;;;;;;10.87;7.70;;;;;;;;;;5035620;28;20463;-58
2022/12/11 10:55:17;;;;;;;12.53;7.70;;;;;;;;;;5043021;28;20979;-58
2022/12/11 10:57:43;;;;;;;12.53;8.00;;;;;;;;;;5023441;28;20415;-57
2022/12/11 11:00:28;;;;;;;10.80;7.17;;;;;;;;;;5008834;28;20227;-58
2022/12/11 11:02:54;;;;;;;11.17;7.43;;;;;;;;;;5042391;28;20395;-57
2022/12/11 11:05:28;;;;;;;12.80;7.80;;;;;;;;;;5046639;28;20408;-58
2022/12/11 11:08:12;;;;;;;11.63;8.23;;;;;;;;;;5044166;28;20626;-58
2022/12/11 11:10:48;;;;;;;10.10;7.10;;;;;;;;;;5054399;28;20454;-58
2022/12/11 11:13:14;;;;;;;10.30;6.97;;;;;;;;;;5046668;28;20475;-58
2022/12/11 11:15:40;;;;;;;11.60;7.93;;;;;;;;;;5043238;28;21189;-59
2022/12/11 11:18:12;;;;;;;15.73;8.47;;;;;;;;;;5030738;28;20427;-60
2022/12/11 11:20:43;;;;;;;11.67;8.67;;;;;;;;;;5042668;28;20939;-61
2022/12/11 11:23:13;;;;;;;14.43;9.20;;;;;;;;;;5040851;28;20428;-61
2022/12/11 11:25:39;;;;;;;14.83;8.20;;;;;;;;;;5026870;28;20432;-61
2022/12/11 11:28:07;;;;;;;11.97;7.97;;;;;;;;;;5047357;28;20465;-61
2022/12/11 11:30:35;;;;;;;14.47;8.50;;;;;;;;;;5047235;28;20549;-60
2022/12/11 11:33:05;;;;;;;11.87;7.93;;;;;;;;;;5045335;28;20456;-60
2022/12/11 11:35:32;;;;;;;15.03;8.13;;;;;;;;;;5048035;28;20400;-61
2022/12/11 11:38:17;;;;;;;14.20;8.97;;;;;;;;;;5046933;28;20450;-61
2022/12/11 11:40:49;;;;;;;15.33;9.07;;;;;;;;;;5067419;28;20410;-60
2022/12/11 11:43:22;;;;;;;11.30;7.93;;;;;;;;;;5054101;28;20425;-60
2022/12/11 11:46:01;;;;;;;12.83;7.40;;;;;;;;;;5048504;28;20945;-60
2022/12/11 11:48:31;;;;;;;14.73;6.93;;;;;;;;;;5033997;28;20774;-60
2022/12/11 11:51:08;;;;;;;9.43;6.90;;;;;;;;;;5018621;28;20955;-60
2022/12/11 11:53:38;;;;;;;9.07;6.20;;;;;;;;;;5031147;28;20514;-60
2022/12/11 11:56:04;;;;;;;11.53;6.87;;;;;;;;;;5027915;28;20418;-60
2022/12/11 11:58:36;;;;;;;13.37;7.53;;;;;;;;;;5022450;28;20866;-60
2022/12/11 12:01:02;;;;;;;9.97;6.83;;;;;;;;;;5024629;28;20923;-60
2022/12/11 12:03:29;;;;;;;12.80;6.77;;;;;;;;;;5021534;28;20432;-62
2022/12/11 12:05:58;;;;;;;11.00;6.43;;;;;;;;;;5023612;28;20189;-60
2022/12/11 12:08:27;;;;;;;12.10;6.90;;;;;;;;;;5016854;28;20539;-61
2022/12/11 12:10:59;;;;;;;7.97;6.27;;;;;;;;;;5025395;28;20472;-61
2022/12/11 12:13:31;;;;;;;14.60;7.57;;;;;;;;;;5022514;28;20424;-61
2022/12/11 12:15:59;;;;;;;13.03;7.97;;;;;;;;;;4989538;28;20500;-62
2022/12/11 12:18:40;;;;;;;10.30;6.80;;;;;;;;;;5005939;28;20468;-60
2022/12/11 12:21:18;;;;;;;9.27;6.77;;;;;;;;;;5010799;28;20495;-60
2022/12/11 12:24:01;;;;;;;11.77;7.17;;;;;;;;;;5009331;28;20440;-61
2022/12/11 12:26:34;;;;;;;11.93;6.07;;;;;;;;;;4989334;28;20409;-60
2022/12/11 12:29:16;;;;;;;9.07;6.10;;;;;;;;;;5007226;28;20437;-60
2022/12/11 12:32:01;;;;;;;14.10;7.53;;;;;;;;;;5007064;28;20972;-60
2022/12/11 12:34:27;;;;;;;11.37;7.60;;;;;;;;;;5006932;28;20715;-60
2022/12/11 12:37:10;;;;;;;11.10;7.00;;;;;;;;;;5006736;28;20832;-61
2022/12/11 12:39:55;;;;;;;11.80;7.53;;;;;;;;;;5035724;28;20177;-60
2022/12/11 12:42:39;;;;;;;16.67;7.97;;;;;;;;;;5021978;28;20715;-60
2022/12/11 12:45:14;;;;;;;10.10;7.00;;;;;;;;;;5033046;28;20474;-61
2022/12/11 12:47:41;;;;;;;9.90;6.80;;;;;;;;;;5022360;28;20427;-60
2022/12/11 12:50:13;;;;;;;11.93;6.93;;;;;;;;;;5009022;28;20405;-60
2022/12/11 12:52:46;;;;;;;13.50;7.53;;;;;;;;;;5021730;28;20624;-60
2022/12/11 12:55:12;;;;;;;11.83;7.63;;;;;;;;;;5010587;28;20421;-60
2022/12/11 12:57:39;;;;;;;14.57;8.67;;;;;;;;;;5027994;28;20413;-61
2022/12/11 13:00:07;;;;;;;15.50;8.40;;;;;;;;;;5006743;28;20572;-60
2022/12/11 13:02:33;;;;;;;13.57;8.50;;;;;;;;;;5022414;28;20431;-61
2022/12/11 13:05:03;;;;;;;14.07;8.13;;;;;;;;;;5024363;28;20523;-60
2022/12/11 13:07:31;;;;;;;14.13;7.53;;;;;;;;;;5023015;28;20412;-60
2022/12/11 13:10:02;;;;;;;13.50;8.90;;;;;;;;;;5026659;28;20405;-59
2022/12/11 13:12:48;;;;;;;14.53;8.93;;;;;;;;;;5024693;28;20475;-61
2022/12/11 13:15:33;;;;;;;11.87;8.47;;;;;;;;;;5025648;28;20884;-60
2022/12/11 13:18:00;;;;;;;15.17;8.17;;;;;;;;;;5038431;28;20495;-60
2022/12/11 13:20:28;;;;;;;12.70;8.37;;;;;;;;;;5046089;28;20407;-60
2022/12/11 13:22:54;;;;;;;12.90;9.07;;;;;;;;;;5023551;28;20417;-60
2022/12/11 13:25:25;;;;;;;12.37;8.00;;;;;;;;;;5006441;28;20393;-60
2022/12/11 13:27:52;;;;;;;12.63;8.40;;;;;;;;;;5005170;28;20541;-60
2022/12/11 13:30:18;;;;;;;11.37;8.00;;;;;;;;;;5027879;28;20491;-60
2022/12/11 13:33:03;;;;;;;13.60;8.97;;;;;;;;;;5028299;28;20431;-60
2022/12/11 13:35:30;;;;;;;18.73;10.33;;;;;;;;;;5026977;28;20921;-60
2022/12/11 13:37:59;;;;;;;14.17;10.37;;;;;;;;;;5025559;28;20419;-60
2022/12/11 13:40:27;;;;;;;13.97;9.07;;;;;;;;;;5026211;28;20401;-61
2022/12/11 13:43:02;;;;;;;14.97;9.23;;;;;;;;;;5025467;28;20435;-60
2022/12/11 13:45:29;;;;;;;15.47;10.40;;;;;;;;;;5003669;28;20783;-60
2022/12/11 13:47:57;;;;;;;11.87;8.20;;;;;;;;;;5024890;28;20416;-60
2022/12/11 13:50:28;;;;;;;15.67;9.47;;;;;;;;;;5025387;28;20638;-61
2022/12/11 13:52:55;;;;;;;17.37;9.97;;;;;;;;;;5016509;28;20813;-60
2022/12/11 13:55:39;;;;;;;15.07;9.33;;;;;;;;;;5060446;28;20403;-60
2022/12/11 13:58:15;;;;;;;16.93;10.00;;;;;;;;;;5034582;28;20437;-60
2022/12/11 14:00:41;;;;;;;15.27;8.70;;;;;;;;;;5063431;28;20426;-59
2022/12/11 14:03:07;;;;;;;15.60;9.23;;;;;;;;;;5035032;28;20937;-60
2022/12/11 14:05:34;;;;;;;16.47;9.70;;;;;;;;;;5046281;28;20639;-60
2022/12/11 14:08:05;;;;;;;14.13;9.53;;;;;;;;;;5027417;28;20778;-59
2022/12/11 14:10:32;;;;;;;19.20;11.43;;;;;;;;;;5045216;28;20881;-59
2022/12/11 14:13:00;;;;;;;11.93;8.73;;;;;;;;;;5046005;28;21004;-60
2022/12/11 14:15:27;;;;;;;14.60;9.57;;;;;;;;;;5030098;28;20992;-61
2022/12/11 14:17:54;;;;;;;15.87;9.53;;;;;;;;;;5047628;28;20578;-60
2022/12/11 14:20:28;;;;;;;16.13;10.73;;;;;;;;;;5053092;28;20448;-60
2022/12/11 14:23:08;;;;;;;15.27;11.20;;;;;;;;;;5045240;28;20772;-60
2022/12/11 14:25:37;;;;;;;13.67;9.87;;;;;;;;;;5059786;28;20415;-60
2022/12/11 14:28:03;;;;;;;14.40;9.63;;;;;;;;;;5049500;28;20480;-60
2022/12/11 14:30:32;;;;;;;17.87;11.13;;;;;;;;;;5059124;28;20987;-60
2022/12/11 14:32:59;;;;;;;15.30;9.70;;;;;;;;;;5064685;28;20936;-60
2022/12/11 14:35:30;;;;;;;16.67;10.43;;;;;;;;;;5050980;28;20423;-59
2022/12/11 14:37:58;;;;;;;20.90;12.27;;;;;;;;;;5047367;28;20442;-59
2022/12/11 14:40:26;;;;;;;20.23;11.27;;;;;;;;;;5047840;28;20434;-61
2022/12/11 14:42:55;;;;;;;16.27;9.93;;;;;;;;;;5041046;28;20813;-60
2022/12/11 14:45:24;;;;;;;15.90;9.53;;;;;;;;;;5044970;28;20426;-60